Time,TemperatureF,DewpointF,PressureIn,WindDirection,WindDirectionDegrees,WindSpeedMPH,WindSpeedGustMPH,Humidity,HourlyPrecipIn,Conditions,Clouds,dailyrainin,SoftwareType,DateUTC
2013-06-12 00:03:00,77.0,64.0,26.63,North,357,18.0,22.0,66,0.00,,,-99.99,,2013-06-12 05:03:00,
2013-06-12 00:13:00,77.0,64.0,26.63,North,4,17.0,20.0,65,0.00,,,-99.99,,2013-06-12 05:13:00,
2013-06-12 00:23:00,78.0,64.0,26.63,North,358,18.0,22.0,65,0.00,,,-99.99,,2013-06-12 05:23:00,
2013-06-12 00:33:00,78.0,64.0,26.64,North,358,18.0,23.0,64,0.00,,,-99.99,,2013-06-12 05:33:00,
2013-06-12 00:43:00,78.0,64.0,26.65,NNE,17,18.0,22.0,65,0.00,,,-99.99,,2013-06-12 05:43:00,
2013-06-12 00:48:00,78.0,64.0,26.65,North,7,21.0,25.0,64,0.00,,,-99.99,,2013-06-12 05:48:00,
2013-06-12 00:58:00,77.0,64.0,26.65,North,6,21.0,26.0,67,0.00,,,-99.99,,2013-06-12 05:58:00,
2013-06-12 01:08:00,77.0,66.0,26.65,NNE,21,20.0,24.0,69,0.00,,,-99.99,,2013-06-12 06:08:00,
2013-06-12 01:18:00,77.0,66.0,26.66,North,4,18.0,22.0,70,0.00,,,-99.99,,2013-06-12 06:18:00,
2013-06-12 01:28:00,76.0,66.0,26.67,NNE,27,14.0,18.0,72,0.00,,,-99.99,,2013-06-12 06:28:00,
2013-06-12 01:33:00,76.0,66.0,26.67,NE,34,13.0,17.0,72,0.00,,,-99.99,,2013-06-12 06:33:00,
2013-06-12 01:43:00,76.0,66.0,26.68,NNE,17,11.0,13.0,73,0.00,,,-99.99,,2013-06-12 06:43:00,
2013-06-12 01:53:00,75.0,66.0,26.70,NNW,336,14.0,15.0,75,0.00,,,-99.99,,2013-06-12 06:53:00,
2013-06-12 02:03:00,75.0,66.0,26.71,NW,314,19.0,23.0,73,0.00,,,-99.99,,2013-06-12 07:03:00,
2013-06-12 02:08:00,75.0,68.0,26.73,NW,316,20.0,23.0,77,0.00,,,-99.99,,2013-06-12 07:08:00,
2013-06-12 02:13:00,75.0,66.0,26.73,NNW,330,20.0,23.0,76,0.00,,,-99.99,,2013-06-12 07:13:00,
2013-06-12 02:18:00,75.0,68.0,26.73,NW,321,20.0,24.0,77,0.00,,,-99.99,,2013-06-12 07:18:00,
2013-06-12 02:28:00,74.0,66.0,26.73,NNW,333,18.0,22.0,78,0.00,,,-99.99,,2013-06-12 07:28:00,
2013-06-12 02:33:00,74.0,66.0,26.73,NNW,327,18.0,21.0,78,0.00,,,-99.99,,2013-06-12 07:33:00,
2013-06-12 02:43:00,73.0,66.0,26.74,NNW,330,14.0,17.0,77,0.00,,,-99.99,,2013-06-12 07:43:00,
2013-06-12 02:53:00,72.0,64.0,26.74,NNW,337,13.0,15.0,79,0.00,,,-99.99,,2013-06-12 07:53:00,
2013-06-12 02:58:00,72.0,66.0,26.75,NW,324,13.0,16.0,80,0.00,,,-99.99,,2013-06-12 07:58:00,
2013-06-12 03:03:00,72.0,66.0,26.75,NNW,329,14.0,17.0,81,0.00,,,-99.99,,2013-06-12 08:03:00,
2013-06-12 03:08:00,72.0,64.0,26.75,NNW,336,12.0,14.0,79,0.00,,,-99.99,,2013-06-12 08:08:00,
2013-06-12 03:18:00,71.0,66.0,26.76,NNW,337,11.0,12.0,83,0.00,,,-99.99,,2013-06-12 08:18:00,
2013-06-12 03:23:00,71.0,64.0,26.76,NNW,336,11.0,13.0,82,0.00,,,-99.99,,2013-06-12 08:23:00,
2013-06-12 03:28:00,71.0,66.0,26.76,NNW,337,10.0,12.0,83,0.00,,,-99.99,,2013-06-12 08:28:00,
2013-06-12 03:33:00,70.0,64.0,26.76,NNW,343,10.0,11.0,84,0.00,,,-99.99,,2013-06-12 08:33:00,
2013-06-12 03:38:00,70.0,64.0,26.76,North,350,10.0,11.0,84,0.00,,,-99.99,,2013-06-12 08:38:00,
2013-06-12 03:43:00,70.0,64.0,26.76,NNW,347,10.0,11.0,85,0.00,,,-99.99,,2013-06-12 08:43:00,
2013-06-12 03:48:00,69.0,64.0,26.77,NNW,341,10.0,12.0,86,0.00,,,-99.99,,2013-06-12 08:48:00,
2013-06-12 03:58:00,69.0,64.0,26.77,NNW,333,10.0,10.0,87,0.00,,,-99.99,,2013-06-12 08:58:00,
2013-06-12 04:03:00,69.0,64.0,26.77,NW,323,11.0,12.0,87,0.00,,,-99.99,,2013-06-12 09:03:00,
2013-06-12 04:08:00,69.0,66.0,26.77,NNW,333,11.0,12.0,89,0.00,,,-99.99,,2013-06-12 09:08:00,
2013-06-12 04:13:00,68.0,64.0,26.77,NNW,333,12.0,13.0,90,0.00,,,-99.99,,2013-06-12 09:13:00,
2013-06-12 04:23:00,69.0,66.0,26.78,NNW,330,12.0,13.0,90,0.00,,,-99.99,,2013-06-12 09:23:00,
2013-06-12 04:28:00,69.0,66.0,26.79,NNW,343,15.0,17.0,90,0.00,,,-99.99,,2013-06-12 09:28:00,
2013-06-12 04:33:00,69.0,66.0,26.81,NNW,340,16.0,19.0,89,0.00,,,-99.99,,2013-06-12 09:33:00,
2013-06-12 04:38:00,69.0,66.0,26.78,NNW,337,17.0,19.0,90,0.00,,,-99.99,,2013-06-12 09:38:00,
2013-06-12 04:48:00,70.0,66.0,26.79,NNW,330,15.0,18.0,89,0.00,,,-99.99,,2013-06-12 09:48:00,
2013-06-12 04:53:00,70.0,66.0,26.81,NNW,340,13.0,15.0,89,0.00,,,-99.99,,2013-06-12 09:53:00,
2013-06-12 04:58:00,69.0,66.0,26.81,NNW,345,14.0,17.0,89,0.00,,,-99.99,,2013-06-12 09:58:00,
2013-06-12 05:03:00,69.0,66.0,26.81,NW,323,10.0,12.0,90,0.00,,,-99.99,,2013-06-12 10:03:00,
2013-06-12 05:08:00,69.0,66.0,26.81,NNW,333,11.0,13.0,90,0.00,,,-99.99,,2013-06-12 10:08:00,
2013-06-12 05:18:00,68.0,64.0,26.82,NW,320,10.0,12.0,91,0.00,,,-99.99,,2013-06-12 10:18:00,
2013-06-12 05:28:00,67.0,64.0,26.81,NNW,338,12.0,13.0,91,0.00,,,-99.99,,2013-06-12 10:28:00,
2013-06-12 05:33:00,67.0,64.0,26.81,NNW,331,10.0,12.0,92,0.00,,,-99.99,,2013-06-12 10:33:00,
2013-06-12 05:43:00,67.0,64.0,26.81,NNW,333,11.0,11.0,92,0.00,,,-99.99,,2013-06-12 10:43:00,
2013-06-12 05:48:00,66.0,64.0,26.82,NNW,338,11.0,12.0,93,0.00,,,-99.99,,2013-06-12 10:48:00,
2013-06-12 05:58:00,66.0,64.0,26.83,NNW,337,11.0,12.0,93,0.00,,,-99.99,,2013-06-12 10:58:00,
2013-06-12 06:03:00,66.0,64.0,26.83,NNW,345,11.0,13.0,93,0.00,,,-99.99,,2013-06-12 11:03:00,
2013-06-12 06:13:00,67.0,64.0,26.83,NNW,340,13.0,15.0,94,0.00,,,-99.99,,2013-06-12 11:13:00,
2013-06-12 06:18:00,67.0,64.0,26.84,NNW,341,12.0,15.0,93,0.00,,,-99.99,,2013-06-12 11:18:00,
2013-06-12 06:28:00,67.0,64.0,26.85,NNW,338,14.0,16.0,94,0.00,,,-99.99,,2013-06-12 11:28:00,
2013-06-12 06:33:00,67.0,64.0,26.85,NNW,343,13.0,15.0,94,0.00,,,-99.99,,2013-06-12 11:33:00,
2013-06-12 06:38:00,67.0,64.0,26.85,NNW,344,13.0,16.0,93,0.00,,,-99.99,,2013-06-12 11:38:00,
2013-06-12 06:43:00,67.0,64.0,26.86,NNW,343,13.0,15.0,93,0.00,,,-99.99,,2013-06-12 11:43:00,
2013-06-12 06:53:00,67.0,64.0,26.88,NNW,345,16.0,19.0,94,0.00,,,-99.99,,2013-06-12 11:53:00,
2013-06-12 06:58:00,67.0,64.0,26.88,NW,323,19.0,21.0,93,0.00,,,-99.99,,2013-06-12 11:58:00,
2013-06-12 07:08:00,67.0,64.0,26.88,NNW,331,17.0,21.0,93,0.00,,,-99.99,,2013-06-12 12:08:00,
2013-06-12 07:13:00,67.0,64.0,26.88,NNW,330,17.0,21.0,93,0.00,,,-99.99,,2013-06-12 12:13:00,
2013-06-12 07:23:00,67.0,64.0,26.88,NNW,329,15.0,21.0,91,0.00,,,-99.99,,2013-06-12 12:23:00,
2013-06-12 07:28:00,67.0,64.0,26.88,North,350,16.0,18.0,91,0.00,,,-99.99,,2013-06-12 12:28:00,
2013-06-12 07:38:00,67.0,64.0,26.89,NNW,337,15.0,18.0,90,0.00,,,-99.99,,2013-06-12 12:38:00,
2013-06-12 07:48:00,68.0,64.0,26.89,North,354,13.0,16.0,88,0.00,,,-99.99,,2013-06-12 12:48:00,
2013-06-12 07:53:00,68.0,64.0,26.89,North,353,12.0,14.0,87,0.00,,,-99.99,,2013-06-12 12:53:00,
2013-06-12 07:58:00,68.0,64.0,26.90,North,3,11.0,13.0,87,0.00,,,-99.99,,2013-06-12 12:58:00,
2013-06-12 08:03:00,68.0,63.0,26.90,North,3,14.0,17.0,85,0.00,,,-99.99,,2013-06-12 13:03:00,
2013-06-12 08:13:00,69.0,64.0,26.90,NNW,348,14.0,15.0,84,0.00,,,-99.99,,2013-06-12 13:13:00,
2013-06-12 08:18:00,69.0,64.0,26.90,North,8,12.0,14.0,85,0.00,,,-99.99,,2013-06-12 13:18:00,
2013-06-12 08:28:00,70.0,64.0,26.90,NNW,343,12.0,14.0,83,0.00,,,-99.99,,2013-06-12 13:28:00,
2013-06-12 08:33:00,70.0,64.0,26.90,NNW,347,12.0,14.0,82,0.00,,,-99.99,,2013-06-12 13:33:00,
2013-06-12 08:38:00,70.0,64.0,26.90,NNW,345,11.0,14.0,84,0.00,,,-99.99,,2013-06-12 13:38:00,
2013-06-12 08:43:00,71.0,64.0,26.91,North,3,12.0,14.0,81,0.00,,,-99.99,,2013-06-12 13:43:00,
2013-06-12 08:58:00,72.0,64.0,26.91,NNW,336,13.0,15.0,79,0.00,,,-99.99,,2013-06-12 13:58:00,
2013-06-12 09:03:00,72.0,66.0,26.91,NNW,343,13.0,14.0,80,0.00,,,-99.99,,2013-06-12 14:03:00,
2013-06-12 09:08:00,72.0,64.0,26.91,North,355,12.0,15.0,78,0.00,,,-99.99,,2013-06-12 14:08:00,
2013-06-12 09:23:00,73.0,66.0,26.92,NNW,334,12.0,14.0,79,0.00,,,-99.99,,2013-06-12 14:23:00,
2013-06-12 09:28:00,73.0,66.0,26.92,NNW,348,13.0,14.0,78,0.00,,,-99.99,,2013-06-12 14:28:00,
2013-06-12 09:33:00,74.0,66.0,26.93,North,350,12.0,14.0,77,0.00,,,-99.99,,2013-06-12 14:33:00,
2013-06-12 09:38:00,74.0,66.0,26.93,NNW,336,14.0,16.0,77,0.00,,,-99.99,,2013-06-12 14:38:00,
2013-06-12 09:43:00,75.0,66.0,26.93,North,351,15.0,16.0,75,0.00,,,-99.99,,2013-06-12 14:43:00,
2013-06-12 09:48:00,75.0,66.0,26.93,North,350,14.0,16.0,75,0.00,,,-99.99,,2013-06-12 14:48:00,
2013-06-12 09:53:00,75.0,66.0,26.93,North,357,14.0,17.0,74,0.00,,,-99.99,,2013-06-12 14:53:00,
2013-06-12 10:08:00,76.0,66.0,26.94,NW,317,13.0,16.0,73,0.00,,,-99.99,,2013-06-12 15:08:00,
2013-06-12 10:13:00,76.0,66.0,26.94,NW,319,12.0,14.0,71,0.00,,,-99.99,,2013-06-12 15:13:00,
2013-06-12 10:18:00,76.0,66.0,26.94,NNW,347,11.0,14.0,71,0.00,,,-99.99,,2013-06-12 15:18:00,
2013-06-12 10:23:00,77.0,66.0,26.94,NW,320,12.0,15.0,68,0.00,,,-99.99,,2013-06-12 15:23:00,
2013-06-12 10:38:00,78.0,66.0,26.94,NNW,336,11.0,14.0,67,0.00,,,-99.99,,2013-06-12 15:38:00,
2013-06-12 10:43:00,78.0,66.0,26.94,NW,320,11.0,13.0,67,0.00,,,-99.99,,2013-06-12 15:43:00,
2013-06-12 10:48:00,78.0,66.0,26.94,NW,326,13.0,16.0,66,0.00,,,-99.99,,2013-06-12 15:48:00,
2013-06-12 10:58:00,79.0,66.0,26.94,NNW,343,12.0,14.0,63,0.00,,,-99.99,,2013-06-12 15:58:00,
2013-06-12 11:03:00,80.0,66.0,26.94,NW,326,12.0,14.0,62,0.00,,,-99.99,,2013-06-12 16:03:00,
2013-06-12 11:18:00,80.0,64.0,26.94,NW,323,11.0,13.0,60,0.00,,,-99.99,,2013-06-12 16:18:00,
2013-06-12 11:23:00,80.0,64.0,26.95,NW,321,11.0,14.0,58,0.00,,,-99.99,,2013-06-12 16:23:00,
2013-06-12 11:38:00,81.0,63.0,26.95,NNW,344,10.0,13.0,55,0.00,,,-99.99,,2013-06-12 16:38:00,
2013-06-12 11:43:00,82.0,64.0,26.95,North,3,11.0,13.0,54,0.00,,,-99.99,,2013-06-12 16:43:00,
2013-06-12 11:48:00,82.0,63.0,26.95,North,3,13.0,14.0,53,0.00,,,-99.99,,2013-06-12 16:48:00,
2013-06-12 11:53:00,82.0,63.0,26.95,North,4,12.0,14.0,53,0.00,,,-99.99,,2013-06-12 16:53:00,
2013-06-12 11:58:00,82.0,63.0,26.95,NNW,333,14.0,16.0,53,0.00,,,-99.99,,2013-06-12 16:58:00,
2013-06-12 12:08:00,82.0,63.0,26.95,NNW,329,13.0,15.0,51,0.00,,,-99.99,,2013-06-12 17:08:00,
2013-06-12 12:13:00,83.0,64.0,26.95,NNW,344,13.0,15.0,52,0.00,,,-99.99,,2013-06-12 17:13:00,
2013-06-12 12:18:00,83.0,63.0,26.95,North,3,12.0,15.0,51,0.00,,,-99.99,,2013-06-12 17:18:00,
2013-06-12 12:28:00,84.0,63.0,26.95,North,0,10.0,12.0,50,0.00,,,-99.99,,2013-06-12 17:28:00,
2013-06-12 12:33:00,84.0,63.0,26.95,NNW,340,13.0,14.0,48,0.00,,,-99.99,,2013-06-12 17:33:00,
2013-06-12 12:38:00,84.0,63.0,26.95,NNW,333,13.0,16.0,49,0.00,,,-99.99,,2013-06-12 17:38:00,
2013-06-12 12:48:00,84.0,63.0,26.95,NNW,327,14.0,18.0,48,0.00,,,-99.99,,2013-06-12 17:48:00,
2013-06-12 12:53:00,85.0,63.0,26.95,North,1,14.0,17.0,46,0.00,,,-99.99,,2013-06-12 17:53:00,
2013-06-12 13:08:00,85.0,63.0,26.94,NNW,331,14.0,19.0,46,0.00,,,-99.99,,2013-06-12 18:08:00,
2013-06-12 13:13:00,86.0,63.0,26.95,NNW,330,13.0,16.0,46,0.00,,,-99.99,,2013-06-12 18:13:00,
2013-06-12 13:18:00,86.0,61.0,26.95,NNW,337,12.0,15.0,44,0.00,,,-99.99,,2013-06-12 18:18:00,
2013-06-12 13:23:00,87.0,63.0,26.95,NNW,334,12.0,15.0,43,0.00,,,-99.99,,2013-06-12 18:23:00,
2013-06-12 13:28:00,87.0,63.0,26.94,NW,313,14.0,17.0,43,0.00,,,-99.99,,2013-06-12 18:28:00,
2013-06-12 13:38:00,87.0,61.0,26.94,NNW,338,12.0,15.0,41,0.00,,,-99.99,,2013-06-12 18:38:00,
2013-06-12 13:43:00,87.0,59.0,26.94,North,355,13.0,17.0,40,0.00,,,-99.99,,2013-06-12 18:43:00,
2013-06-12 13:53:00,87.0,59.0,26.94,NNW,337,12.0,15.0,40,0.00,,,-99.99,,2013-06-12 18:53:00,
2013-06-12 13:58:00,88.0,61.0,26.94,NNW,338,12.0,15.0,40,0.00,,,-99.99,,2013-06-12 18:58:00,
2013-06-12 14:03:00,88.0,59.0,26.94,NNW,345,13.0,16.0,39,0.00,,,-99.99,,2013-06-12 19:03:00,
2013-06-12 14:08:00,88.0,59.0,26.94,North,4,12.0,14.0,38,0.00,,,-99.99,,2013-06-12 19:08:00,
2013-06-12 14:13:00,89.0,61.0,26.94,North,353,14.0,17.0,38,0.00,,,-99.99,,2013-06-12 19:13:00,
2013-06-12 14:18:00,89.0,61.0,26.94,NNW,331,12.0,14.0,39,0.00,,,-99.99,,2013-06-12 19:18:00,
2013-06-12 14:28:00,89.0,59.0,26.94,NNE,13,11.0,13.0,36,0.00,,,-99.99,,2013-06-12 19:28:00,
2013-06-12 14:33:00,89.0,59.0,26.94,North,10,13.0,15.0,37,0.00,,,-99.99,,2013-06-12 19:33:00,
2013-06-12 14:38:00,89.0,57.0,26.94,North,0,13.0,15.0,35,0.00,,,-99.99,,2013-06-12 19:38:00,
2013-06-12 14:43:00,89.0,57.0,26.93,NNW,334,10.0,13.0,35,0.00,,,-99.99,,2013-06-12 19:43:00,
2013-06-12 14:48:00,89.0,57.0,26.93,NNW,327,14.0,17.0,34,0.00,,,-99.99,,2013-06-12 19:48:00,
2013-06-12 14:58:00,90.0,59.0,26.93,North,4,11.0,12.0,35,0.00,,,-99.99,,2013-06-12 19:58:00,
2013-06-12 15:03:00,90.0,57.0,26.93,North,7,12.0,16.0,34,0.00,,,-99.99,,2013-06-12 20:03:00,
2013-06-12 15:18:00,90.0,59.0,26.93,North,10,11.0,15.0,35,0.00,,,-99.99,,2013-06-12 20:18:00,
2013-06-12 15:23:00,91.0,59.0,26.93,NNW,331,11.0,17.0,34,0.00,,,-99.99,,2013-06-12 20:23:00,
2013-06-12 15:28:00,91.0,55.0,26.93,North,3,14.0,18.0,31,0.00,,,-99.99,,2013-06-12 20:28:00,
2013-06-12 15:33:00,90.0,55.0,26.92,North,4,14.0,16.0,32,0.00,,,-99.99,,2013-06-12 20:33:00,
2013-06-12 15:38:00,91.0,55.0,26.92,North,3,12.0,16.0,31,0.00,,,-99.99,,2013-06-12 20:38:00,
2013-06-12 15:43:00,91.0,55.0,26.92,NNW,341,13.0,16.0,31,0.00,,,-99.99,,2013-06-12 20:43:00,
2013-06-12 15:48:00,91.0,55.0,26.92,NNW,340,12.0,15.0,30,0.00,,,-99.99,,2013-06-12 20:48:00,
2013-06-12 15:53:00,91.0,57.0,26.92,NNW,340,13.0,16.0,32,0.00,,,-99.99,,2013-06-12 20:53:00,
2013-06-12 15:58:00,91.0,55.0,26.92,NE,34,12.0,14.0,31,0.00,,,-99.99,,2013-06-12 20:58:00,
2013-06-12 16:08:00,91.0,54.0,26.92,NE,34,14.0,16.0,29,0.00,,,-99.99,,2013-06-12 21:08:00,
2013-06-12 16:13:00,91.0,54.0,26.92,North,353,15.0,18.0,29,0.00,,,-99.99,,2013-06-12 21:13:00,
2013-06-12 16:28:00,92.0,55.0,26.92,North,360,13.0,16.0,29,0.00,,,-99.99,,2013-06-12 21:28:00,
2013-06-12 16:33:00,92.0,52.0,26.92,North,3,14.0,16.0,26,0.00,,,-99.99,,2013-06-12 21:33:00,
2013-06-12 16:43:00,92.0,55.0,26.92,North,7,14.0,17.0,29,0.00,,,-99.99,,2013-06-12 21:43:00,
2013-06-12 16:48:00,91.0,54.0,26.93,NNE,17,14.0,16.0,29,0.00,,,-99.99,,2013-06-12 21:48:00,
2013-06-12 16:53:00,90.0,54.0,26.93,North,11,12.0,14.0,29,0.00,,,-99.99,,2013-06-12 21:53:00,
2013-06-12 17:03:00,90.0,57.0,26.93,NNE,31,7.0,9.0,33,0.00,,,-99.99,,2013-06-12 22:03:00,
2013-06-12 17:08:00,90.0,54.0,26.93,NE,44,14.0,19.0,30,0.00,,,-99.99,,2013-06-12 22:08:00,
2013-06-12 17:18:00,90.0,57.0,26.93,NNE,21,11.0,15.0,34,0.00,,,-99.99,,2013-06-12 22:18:00,
2013-06-12 17:23:00,90.0,57.0,26.93,NE,51,9.0,12.0,34,0.00,,,-99.99,,2013-06-12 22:23:00,
2013-06-12 17:28:00,89.0,57.0,26.93,NE,34,12.0,18.0,34,0.00,,,-99.99,,2013-06-12 22:28:00,
2013-06-12 17:33:00,89.0,57.0,26.93,NE,41,12.0,13.0,34,0.00,,,-99.99,,2013-06-12 22:33:00,
2013-06-12 17:38:00,90.0,59.0,26.93,North,0,13.0,16.0,35,0.00,,,-99.99,,2013-06-12 22:38:00,
2013-06-12 17:43:00,90.0,57.0,26.93,North,0,11.0,13.0,33,0.00,,,-99.99,,2013-06-12 22:43:00,
2013-06-12 17:48:00,90.0,57.0,26.93,NNE,23,11.0,20.0,33,0.00,,,-99.99,,2013-06-12 22:48:00,
2013-06-12 17:53:00,90.0,57.0,26.93,ENE,58,11.0,13.0,33,0.00,,,-99.99,,2013-06-12 22:53:00,
2013-06-12 17:58:00,90.0,55.0,26.93,NE,37,15.0,17.0,32,0.00,,,-99.99,,2013-06-12 22:58:00,
2013-06-12 18:03:00,90.0,57.0,26.93,NE,52,12.0,15.0,33,0.00,,,-99.99,,2013-06-12 23:03:00,
2013-06-12 18:13:00,90.0,57.0,26.93,NE,47,14.0,19.0,34,0.00,,,-99.99,,2013-06-12 23:13:00,
2013-06-12 18:18:00,89.0,61.0,26.93,NE,37,17.0,21.0,40,0.00,,,-99.99,,2013-06-12 23:18:00,
2013-06-12 18:28:00,88.0,64.0,26.94,NE,44,19.0,23.0,46,0.00,,,-99.99,,2013-06-12 23:28:00,
2013-06-12 18:33:00,87.0,64.0,26.94,NNE,32,18.0,22.0,48,0.00,,,-99.99,,2013-06-12 23:33:00,
2013-06-12 18:38:00,86.0,64.0,26.94,ENE,58,18.0,21.0,49,0.00,,,-99.99,,2013-06-12 23:38:00,
2013-06-12 18:43:00,86.0,64.0,26.94,NE,47,18.0,20.0,48,0.00,,,-99.99,,2013-06-12 23:43:00,
2013-06-12 18:53:00,85.0,64.0,26.94,NE,42,17.0,19.0,50,0.00,,,-99.99,,2013-06-12 23:53:00,
2013-06-12 18:58:00,85.0,64.0,26.94,NE,47,17.0,20.0,50,0.00,,,-99.99,,2013-06-12 23:58:00,
2013-06-12 19:03:00,85.0,66.0,26.95,ENE,63,20.0,23.0,52,0.00,,,-99.99,,2013-06-13 00:03:00,
2013-06-12 19:08:00,84.0,64.0,26.95,NE,55,19.0,21.0,52,0.00,,,-99.99,,2013-06-13 00:08:00,
2013-06-12 19:13:00,84.0,64.0,26.95,NE,42,18.0,21.0,52,0.00,,,-99.99,,2013-06-13 00:13:00,
2013-06-12 19:18:00,84.0,64.0,26.96,NE,35,17.0,21.0,53,0.00,,,-99.99,,2013-06-13 00:18:00,
2013-06-12 19:23:00,83.0,64.0,26.96,NE,35,17.0,20.0,53,0.00,,,-99.99,,2013-06-13 00:23:00,
2013-06-12 19:28:00,82.0,63.0,26.96,NE,41,17.0,20.0,53,0.00,,,-99.99,,2013-06-13 00:28:00,
2013-06-12 19:33:00,82.0,63.0,26.96,NE,41,18.0,20.0,53,0.00,,,-99.99,,2013-06-13 00:33:00,
2013-06-12 19:38:00,82.0,64.0,26.97,NNE,21,18.0,22.0,55,0.00,,,-99.99,,2013-06-13 00:38:00,
2013-06-12 19:43:00,81.0,63.0,26.97,NNE,25,17.0,20.0,55,0.00,,,-99.99,,2013-06-13 00:43:00,
2013-06-12 19:48:00,81.0,63.0,26.97,NE,44,18.0,20.0,55,0.00,,,-99.99,,2013-06-13 00:48:00,
2013-06-12 19:53:00,80.0,63.0,26.97,NNE,16,18.0,19.0,57,0.00,,,-99.99,,2013-06-13 00:53:00,
2013-06-12 19:58:00,80.0,64.0,26.98,NE,48,16.0,20.0,58,0.00,,,-99.99,,2013-06-13 00:58:00,
2013-06-12 20:03:00,79.0,63.0,26.97,NNE,20,17.0,20.0,59,0.00,,,-99.99,,2013-06-13 01:03:00,
2013-06-12 20:08:00,79.0,64.0,26.98,ENE,65,15.0,18.0,60,0.00,,,-99.99,,2013-06-13 01:08:00,
2013-06-12 20:13:00,78.0,63.0,26.98,NE,54,17.0,20.0,61,0.00,,,-99.99,,2013-06-13 01:13:00,
2013-06-12 20:18:00,78.0,64.0,26.99,NE,47,19.0,21.0,62,0.00,,,-99.99,,2013-06-13 01:18:00,
2013-06-12 20:23:00,77.0,63.0,26.99,NE,54,19.0,21.0,63,0.00,,,-99.99,,2013-06-13 01:23:00,
2013-06-12 20:28:00,76.0,63.0,26.99,NE,41,17.0,20.0,63,0.00,,,-99.99,,2013-06-13 01:28:00,
2013-06-12 20:33:00,75.0,63.0,26.99,NE,41,18.0,21.0,65,0.00,,,-99.99,,2013-06-13 01:33:00,
2013-06-12 20:38:00,75.0,63.0,26.99,NE,44,19.0,22.0,66,0.00,,,-99.99,,2013-06-13 01:38:00,
2013-06-12 20:43:00,74.0,63.0,26.99,NE,52,17.0,20.0,66,0.00,,,-99.99,,2013-06-13 01:43:00,
2013-06-12 20:48:00,74.0,63.0,26.99,NE,51,15.0,18.0,67,0.00,,,-99.99,,2013-06-13 01:48:00,
2013-06-12 20:53:00,73.0,63.0,26.99,ENE,58,17.0,19.0,68,0.00,,,-99.99,,2013-06-13 01:53:00,
2013-06-12 20:58:00,72.0,61.0,27.00,NE,44,17.0,20.0,69,0.00,,,-99.99,,2013-06-13 01:58:00,
2013-06-12 21:03:00,72.0,61.0,26.99,NE,51,17.0,21.0,69,0.00,,,-99.99,,2013-06-13 02:03:00,
2013-06-12 21:08:00,71.0,61.0,26.99,NE,37,17.0,20.0,69,0.00,,,-99.99,,2013-06-13 02:08:00,
2013-06-12 21:13:00,71.0,59.0,27.00,ENE,59,16.0,19.0,68,0.00,,,-99.99,,2013-06-13 02:13:00,
2013-06-12 21:23:00,70.0,59.0,27.00,NE,52,17.0,19.0,69,0.00,,,-99.99,,2013-06-13 02:23:00,
2013-06-12 21:33:00,69.0,59.0,27.00,NE,34,18.0,21.0,70,0.00,,,-99.99,,2013-06-13 02:33:00,
2013-06-12 21:38:00,69.0,59.0,27.00,NE,56,17.0,20.0,71,0.00,,,-99.99,,2013-06-13 02:38:00,
2013-06-12 21:43:00,69.0,59.0,27.00,NE,37,16.0,19.0,70,0.00,,,-99.99,,2013-06-13 02:43:00,
2013-06-12 21:48:00,68.0,59.0,27.01,NE,52,13.0,15.0,71,0.00,,,-99.99,,2013-06-13 02:48:00,
2013-06-12 21:58:00,67.0,59.0,27.00,ENE,59,14.0,16.0,74,0.00,,,-99.99,,2013-06-13 02:58:00,
2013-06-12 22:03:00,67.0,57.0,27.01,ENE,66,13.0,16.0,73,0.00,,,-99.99,,2013-06-13 03:03:00,
2013-06-12 22:08:00,67.0,59.0,27.01,ENE,68,15.0,17.0,74,0.00,,,-99.99,,2013-06-13 03:08:00,
2013-06-12 22:13:00,67.0,59.0,27.01,NE,51,15.0,19.0,75,0.00,,,-99.99,,2013-06-13 03:13:00,
2013-06-12 22:18:00,67.0,59.0,27.01,NE,48,17.0,19.0,75,0.00,,,-99.99,,2013-06-13 03:18:00,
2013-06-12 22:23:00,67.0,59.0,27.01,ENE,61,14.0,17.0,75,0.00,,,-99.99,,2013-06-13 03:23:00,
2013-06-12 22:28:00,66.0,57.0,27.01,ENE,63,15.0,19.0,75,0.00,,,-99.99,,2013-06-13 03:28:00,
2013-06-12 22:38:00,66.0,57.0,27.02,ENE,68,13.0,16.0,74,0.00,,,-99.99,,2013-06-13 03:38:00,
2013-06-12 22:43:00,66.0,57.0,27.01,ENE,58,14.0,17.0,75,0.00,,,-99.99,,2013-06-13 03:43:00,
2013-06-12 22:53:00,65.0,57.0,27.02,ENE,68,14.0,16.0,75,0.00,,,-99.99,,2013-06-13 03:53:00,
2013-06-12 23:08:00,65.0,57.0,27.02,ENE,65,13.0,15.0,76,0.00,,,-99.99,,2013-06-13 04:08:00,
2013-06-12 23:18:00,64.0,55.0,27.02,ENE,78,10.0,13.0,76,0.00,,,-99.99,,2013-06-13 04:18:00,
2013-06-12 23:23:00,64.0,57.0,27.03,East,83,13.0,16.0,78,0.00,,,-99.99,,2013-06-13 04:23:00,
2013-06-12 23:33:00,64.0,57.0,27.03,ENE,62,13.0,17.0,78,0.00,,,-99.99,,2013-06-13 04:33:00,
2013-06-12 23:38:00,64.0,57.0,27.03,ENE,75,12.0,15.0,77,0.00,,,-99.99,,2013-06-13 04:38:00,
2013-06-12 23:48:00,63.0,55.0,27.03,East,86,10.0,13.0,78,0.00,,,-99.99,,2013-06-13 04:48:00,
2013-06-12 23:53:00,63.0,55.0,27.03,East,86,11.0,13.0,78,0.00,,,-99.99,,2013-06-13 04:53:00,